Time;durP1;ratioP1;P1;durP2;ratioP2;P2;SDS_P1;SDS_P2;PMS_P1;PMS_P2;Temp;Humidity;BMP_temperature;BMP_pressure;BME280_temperature;BME280_humidity;BME280_pressure;Samples;Min_cycle;Max_cycle;Signal;HPM_P1;HPM_P2
2021/07/02 00:03:15;;;;;;;11.23;7.03;;;;;;;17.87;64.26;97969.50;8412355;28;20302;-72
2021/07/02 00:07:18;;;;;;;11.17;6.87;;;;;;;17.91;64.14;97970.94;8413374;28;20223;-72
2021/07/02 00:11:21;;;;;;;12.50;7.13;;;;;;;17.81;64.14;97971.72;8413431;28;20199;-72
2021/07/02 00:15:23;;;;;;;10.00;6.73;;;;;;;17.86;64.25;97970.47;8413231;28;20398;-72
2021/07/02 00:19:30;;;;;;;11.53;7.10;;;;;;;17.80;64.53;97965.66;8413391;28;20210;-71
2021/07/02 00:23:33;;;;;;;9.60;7.33;;;;;;;17.85;64.62;97970.56;8413307;28;20203;-73
2021/07/02 00:27:36;;;;;;;7.90;6.43;;;;;;;17.52;65.74;97970.28;8412898;28;20231;-73
2021/07/02 00:31:39;;;;;;;12.77;6.20;;;;;;;17.40;65.94;97968.53;8413388;28;20233;-72
2021/07/02 00:35:43;;;;;;;11.77;6.37;;;;;;;17.42;66.14;97968.44;8414871;28;20221;-72
2021/07/02 00:39:46;;;;;;;11.40;7.20;;;;;;;17.41;66.13;97977.25;8419050;28;20218;-72
2021/07/02 00:43:50;;;;;;;11.07;6.33;;;;;;;17.45;66.19;97974.28;8418927;28;20203;-73
2021/07/02 00:47:53;;;;;;;10.10;6.73;;;;;;;17.39;66.14;97967.72;8418898;28;20512;-73
2021/07/02 00:51:57;;;;;;;10.30;7.10;;;;;;;17.67;65.60;97964.88;8418639;28;20226;-73
2021/07/02 00:56:01;;;;;;;10.97;6.70;;;;;;;17.70;65.13;97960.25;8398579;28;20202;-73
2021/07/02 01:00:06;;;;;;;10.87;6.70;;;;;;;17.80;64.94;97963.03;8388126;28;20211;-73
2021/07/02 01:04:09;;;;;;;8.60;6.37;;;;;;;17.51;65.47;97967.78;8400953;28;20374;-73
2021/07/02 01:08:16;;;;;;;10.93;6.50;;;;;;;17.41;66.35;97967.63;8401036;28;20273;-73
2021/07/02 01:12:18;;;;;;;9.87;6.37;;;;;;;17.34;66.45;97964.63;8393008;28;20549;-73
2021/07/02 01:16:21;;;;;;;11.17;6.60;;;;;;;17.37;66.33;97961.75;8384868;28;20200;-73
2021/07/02 01:20:24;;;;;;;14.93;6.80;;;;;;;17.66;64.95;97955.34;8385139;28;20283;-73
2021/07/02 01:24:28;;;;;;;11.27;6.47;;;;;;;17.66;64.90;97953.56;8385237;28;20369;-73
2021/07/02 01:28:31;;;;;;;10.87;7.03;;;;;;;17.58;65.02;97950.69;8384346;28;20495;-73
2021/07/02 01:32:34;;;;;;;11.00;6.80;;;;;;;17.64;65.14;97946.78;8384441;28;20386;-73
2021/07/02 01:36:38;;;;;;;7.00;6.30;;;;;;;17.68;65.33;97956.91;8384577;28;20223;-72
2021/07/02 01:40:42;;;;;;;9.90;6.47;;;;;;;17.69;65.36;97952.53;8389102;28;20196;-73
2021/07/02 01:44:45;;;;;;;10.00;6.43;;;;;;;17.68;65.37;97953.44;8384065;28;20495;-73
2021/07/02 01:48:48;;;;;;;11.83;6.63;;;;;;;17.71;65.30;97954.06;8383851;28;20287;-73
2021/07/02 01:52:50;;;;;;;10.03;6.93;;;;;;;17.71;65.54;97954.06;8383507;28;20224;-73
2021/07/02 01:56:55;;;;;;;9.00;7.00;;;;;;;17.68;65.80;97945.59;8383454;28;20203;-73
2021/07/02 02:00:57;;;;;;;12.20;6.47;;;;;;;17.68;65.94;97949.03;8383482;28;20208;-73
2021/07/02 02:05:02;;;;;;;11.23;7.20;;;;;;;17.67;65.74;97959.63;8383398;28;20207;-73
2021/07/02 02:09:06;;;;;;;8.73;6.80;;;;;;;17.39;66.75;97956.41;8383342;28;20206;-73
2021/07/02 02:13:10;;;;;;;10.83;7.20;;;;;;;17.31;66.91;97954.34;8382981;28;20566;-72
2021/07/02 02:17:13;;;;;;;8.97;7.30;;;;;;;17.29;66.73;97951.00;8382639;28;20275;-72
2021/07/02 02:21:16;;;;;;;9.47;6.80;;;;;;;17.31;67.21;97953.53;8382607;28;20212;-72
2021/07/02 02:25:18;;;;;;;10.70;7.77;;;;;;;17.30;67.43;97950.06;8382750;28;20249;-73
2021/07/02 02:29:23;;;;;;;10.83;6.93;;;;;;;17.25;67.15;97962.66;8382466;28;20247;-73
2021/07/02 02:33:26;;;;;;;10.70;7.13;;;;;;;17.30;66.82;97957.91;8382385;28;20509;-73
2021/07/02 02:37:29;;;;;;;8.27;6.90;;;;;;;17.53;66.18;97960.63;8382159;28;20203;-73
2021/07/02 02:41:32;;;;;;;11.53;7.00;;;;;;;17.56;65.94;97949.97;8382103;28;20211;-73
2021/07/02 02:45:36;;;;;;;11.70;7.20;;;;;;;17.41;66.29;97962.38;8381833;28;20203;-72
2021/07/02 02:49:39;;;;;;;10.30;6.40;;;;;;;17.23;67.27;97966.31;8382058;28;20200;-72
2021/07/02 02:53:41;;;;;;;10.40;7.00;;;;;;;17.23;67.18;97963.69;8381929;28;20227;-72
2021/07/02 02:57:44;;;;;;;10.80;7.13;;;;;;;17.18;67.67;97958.81;8381042;28;20203;-72
2021/07/02 03:01:48;;;;;;;11.67;7.20;;;;;;;17.21;67.24;97961.22;8393645;28;20207;-72
2021/07/02 03:05:51;;;;;;;11.43;6.80;;;;;;;17.26;67.03;97953.00;8414943;28;20540;-72
2021/07/02 03:09:54;;;;;;;12.10;6.70;;;;;;;17.21;67.31;97953.34;8415480;28;20199;-72
2021/07/02 03:13:57;;;;;;;8.07;6.47;;;;;;;17.22;67.19;97959.41;8415373;28;20223;-72
2021/07/02 03:18:01;;;;;;;11.80;7.23;;;;;;;17.19;67.25;97961.31;8414337;28;20199;-72
2021/07/02 03:22:04;;;;;;;10.30;6.83;;;;;;;17.15;67.49;97967.72;8414084;28;20198;-72
2021/07/02 03:26:07;;;;;;;12.90;7.47;;;;;;;17.11;67.25;97963.63;8414285;28;20202;-72
2021/07/02 03:30:12;;;;;;;13.60;8.07;;;;;;;17.11;66.82;97965.41;8415020;28;20533;-72
2021/07/02 03:34:16;;;;;;;11.10;8.10;;;;;;;17.11;66.86;97971.47;8414451;28;20227;-72
2021/07/02 03:38:19;;;;;;;12.20;8.20;;;;;;;17.12;66.63;97978.38;8414993;28;20213;-72
2021/07/02 03:42:22;;;;;;;13.67;8.47;;;;;;;17.38;66.10;97978.28;8414202;28;20472;-72
2021/07/02 03:46:24;;;;;;;16.17;7.93;;;;;;;17.47;65.75;97977.63;8413931;28;20199;-72
2021/07/02 03:50:29;;;;;;;10.37;8.40;;;;;;;17.44;65.32;97988.34;8413929;28;20385;-72
2021/07/02 03:54:31;;;;;;;13.93;8.37;;;;;;;17.41;65.77;97980.69;8413774;28;20502;-72
2021/07/02 03:58:35;;;;;;;12.57;8.47;;;;;;;17.51;65.40;97975.63;8413745;28;20207;-72
2021/07/02 04:02:37;;;;;;;14.10;8.87;;;;;;;17.45;65.58;97979.53;8413400;28;20221;-72
2021/07/02 04:06:42;;;;;;;14.80;9.20;;;;;;;17.44;65.18;97985.72;8413655;28;20275;-72
2021/07/02 04:10:45;;;;;;;13.37;8.67;;;;;;;17.46;65.58;97981.22;8415425;28;20206;-72
2021/07/02 04:14:48;;;;;;;14.57;9.80;;;;;;;17.35;65.56;97986.38;8419602;28;20226;-72
2021/07/02 04:18:51;;;;;;;15.07;9.50;;;;;;;17.35;65.61;97983.75;8419481;28;20537;-72
2021/07/02 04:22:55;;;;;;;11.83;8.83;;;;;;;17.42;66.14;97985.00;8419619;28;20202;-73
2021/07/02 04:26:57;;;;;;;12.67;8.73;;;;;;;17.44;65.40;97988.34;8401267;28;20206;-72
2021/07/02 04:31:00;;;;;;;12.87;8.63;;;;;;;17.49;66.01;97996.69;8419166;28;20199;-72
2021/07/02 04:35:03;;;;;;;12.17;8.93;;;;;;;17.53;65.61;97992.06;8419009;28;20227;-72
2021/07/02 04:39:08;;;;;;;17.17;9.53;;;;;;;17.48;65.76;97989.78;8407056;28;20243;-73
2021/07/02 04:43:10;;;;;;;12.37;9.23;;;;;;;17.14;66.40;97997.44;8418663;28;20210;-72
2021/07/02 04:47:13;;;;;;;13.93;9.93;;;;;;;17.02;67.23;98000.91;8412668;28;20207;-73
2021/07/02 04:51:16;;;;;;;15.27;9.80;;;;;;;17.04;67.01;97995.56;8418483;28;20203;-73
2021/07/02 04:55:20;;;;;;;14.87;10.23;;;;;;;17.05;66.80;98005.09;8417273;28;20223;-72
2021/07/02 04:59:28;;;;;;;13.60;10.43;;;;;;;17.01;67.37;98001.84;8417686;28;20195;-72
2021/07/02 05:03:30;;;;;;;11.17;9.63;;;;;;;16.99;67.02;98001.94;8400338;28;20204;-73
2021/07/02 05:07:33;;;;;;;13.73;9.50;;;;;;;17.05;66.92;98000.69;8402605;28;20278;-73
2021/07/02 05:11:39;;;;;;;13.33;9.97;;;;;;;17.00;67.42;98002.78;8415487;28;20218;-73
2021/07/02 05:15:43;;;;;;;11.40;9.90;;;;;;;17.05;67.12;98008.53;8404570;28;20219;-73
2021/07/02 05:19:46;;;;;;;12.90;10.27;;;;;;;16.93;67.29;98012.84;8414309;28;20455;-72
2021/07/02 05:23:48;;;;;;;12.60;9.83;;;;;;;17.06;67.65;98012.84;8405425;28;20195;-73
2021/07/02 05:27:53;;;;;;;16.63;10.03;;;;;;;17.35;65.98;98020.41;8400278;28;20235;-72
2021/07/02 05:31:55;;;;;;;12.77;10.13;;;;;;;17.35;65.92;98023.03;8417463;28;20203;-73
2021/07/02 05:35:58;;;;;;;13.07;9.70;;;;;;;17.46;66.17;98022.25;8417022;28;20230;-73
2021/07/02 05:40:01;;;;;;;15.57;10.83;;;;;;;17.51;65.48;98022.75;8417462;28;20203;-74
2021/07/02 05:44:08;;;;;;;13.80;10.23;;;;;;;17.51;65.74;98026.19;8416876;28;20338;-73
2021/07/02 05:48:16;;;;;;;14.67;10.70;;;;;;;17.29;66.26;98026.91;8416263;28;20199;-72
2021/07/02 05:52:19;;;;;;;14.53;11.70;;;;;;;17.42;65.26;98029.50;8416345;28;20222;-72
2021/07/02 05:56:27;;;;;;;12.70;11.23;;;;;;;17.48;65.96;98030.84;8415783;28;20227;-73
2021/07/02 06:00:31;;;;;;;13.00;11.40;;;;;;;17.20;66.71;98035.41;8416178;28;20203;-73
2021/07/02 06:04:34;;;;;;;16.07;11.43;;;;;;;17.20;66.61;98043.25;8415888;28;20203;-73
2021/07/02 06:08:37;;;;;;;12.57;10.90;;;;;;;17.34;66.07;98039.66;8415909;28;20226;-73
2021/07/02 06:12:40;;;;;;;15.70;11.77;;;;;;;17.61;64.66;98042.13;8416127;28;20210;-73
2021/07/02 06:16:44;;;;;;;13.50;10.23;;;;;;;17.69;64.92;98038.94;8415627;28;20226;-73
2021/07/02 06:20:51;;;;;;;13.43;11.03;;;;;;;17.32;66.07;98052.03;8415656;28;20199;-73
2021/07/02 06:24:54;;;;;;;13.83;11.43;;;;;;;17.29;66.05;98052.25;8415843;28;20217;-73
2021/07/02 06:28:57;;;;;;;14.43;10.60;;;;;;;17.74;64.84;98052.53;8415847;28;20258;-73
2021/07/02 06:33:01;;;;;;;13.83;11.20;;;;;;;17.74;64.78;98049.91;8414401;28;20218;-73
2021/07/02 06:37:04;;;;;;;15.27;12.17;;;;;;;17.76;64.47;98056.72;8415221;28;20513;-72
2021/07/02 06:41:07;;;;;;;16.20;11.77;;;;;;;17.86;63.61;98059.53;8414491;28;20199;-72
2021/07/02 06:45:12;;;;;;;18.07;12.53;;;;;;;17.88;63.61;98056.81;8414215;28;20224;-72
2021/07/02 06:49:17;;;;;;;15.63;12.20;;;;;;;17.97;64.42;98063.97;8414136;28;20205;-72
2021/07/02 06:53:19;;;;;;;16.90;13.33;;;;;;;18.07;64.21;98070.22;8414111;28;20338;-72
2021/07/02 06:57:22;;;;;;;15.60;11.73;;;;;;;18.15;63.54;98070.50;8413627;28;20237;-72
2021/07/02 07:01:25;;;;;;;14.70;11.73;;;;;;;18.16;63.61;98066.09;8413642;28;20203;-72
2021/07/02 07:05:30;;;;;;;15.90;12.90;;;;;;;18.14;63.27;98067.97;8413532;28;20405;-73
2021/07/02 07:09:33;;;;;;;16.07;13.00;;;;;;;18.15;63.72;98064.44;8413616;28;20203;-72
2021/07/02 07:13:38;;;;;;;16.00;12.87;;;;;;;18.13;63.76;98071.56;8413660;28;20270;-72
2021/07/02 07:17:41;;;;;;;20.37;12.50;;;;;;;18.24;63.02;98074.22;8413481;28;20199;-72
2021/07/02 07:21:45;;;;;;;19.30;13.10;;;;;;;17.91;64.57;98070.50;8413602;28;20270;-72
2021/07/02 07:25:49;;;;;;;21.60;14.37;;;;;;;17.70;64.85;98077.25;8413197;28;20418;-72
2021/07/02 07:29:51;;;;;;;17.93;13.07;;;;;;;17.74;64.20;98081.31;8413193;28;20411;-72
2021/07/02 07:33:57;;;;;;;18.40;13.30;;;;;;;17.53;64.26;98087.16;8399607;28;20388;-73
2021/07/02 07:38:01;;;;;;;19.40;14.43;;;;;;;17.54;64.30;98086.22;8412052;28;20195;-72
2021/07/02 07:42:05;;;;;;;18.20;13.90;;;;;;;17.50;64.07;98097.84;8412810;28;20206;-72
2021/07/02 07:46:08;;;;;;;20.23;14.17;;;;;;;17.52;64.19;98093.34;8411570;28;20199;-72
2021/07/02 07:50:14;;;;;;;20.97;13.93;;;;;;;17.49;64.14;98092.72;8386232;28;20202;-72
2021/07/02 07:54:18;;;;;;;18.17;13.40;;;;;;;17.64;64.78;98094.25;8386189;28;20227;-72
2021/07/02 07:58:21;;;;;;;12.27;6.53;;;;;;;17.78;68.95;98088.88;8385455;28;20207;-67
2021/07/02 08:02:24;;;;;;;16.63;10.13;;;;;;;18.32;64.91;98099.88;8415863;28;20203;-63
2021/07/02 08:06:27;;;;;;;11.93;8.83;;;;;;;18.66;64.46;98094.75;8419026;28;20219;-63
2021/07/02 08:10:31;;;;;;;12.20;9.37;;;;;;;18.91;63.91;98102.44;8419210;28;20200;-64
2021/07/02 08:14:33;;;;;;;17.70;10.20;;;;;;;18.95;62.21;98105.66;8419005;28;20234;-63
2021/07/02 08:18:36;;;;;;;17.40;11.10;;;;;;;19.13;62.45;98106.03;8418620;28;20199;-63
2021/07/02 08:22:40;;;;;;;16.93;10.10;;;;;;;19.21;61.96;98108.94;8418828;28;20362;-63
2021/07/02 08:26:47;;;;;;;18.03;10.47;;;;;;;19.17;60.99;98114.50;8418796;28;20366;-64
2021/07/02 08:30:50;;;;;;;19.50;9.33;;;;;;;19.33;61.75;98115.00;8418923;28;20381;-64
2021/07/02 08:34:52;;;;;;;14.10;10.17;;;;;;;19.32;60.45;98113.31;8418519;28;20226;-63
2021/07/02 08:38:55;;;;;;;15.07;9.77;;;;;;;19.55;59.99;98114.13;8418472;28;20199;-70
2021/07/02 08:42:59;;;;;;;16.57;9.50;;;;;;;19.53;59.63;98114.28;8419401;28;20221;-66
2021/07/02 08:47:03;;;;;;;15.57;9.30;;;;;;;19.60;59.44;98121.69;8419153;28;20203;-65
2021/07/02 08:51:06;;;;;;;12.73;9.40;;;;;;;19.73;58.82;98117.97;8419028;28;20206;-65
2021/07/02 08:55:12;;;;;;;19.03;9.33;;;;;;;19.82;59.27;98126.94;8418297;28;20223;-64
2021/07/02 08:59:16;;;;;;;22.87;9.77;;;;;;;19.91;58.75;98117.47;8417894;28;20368;-64
2021/07/02 09:03:26;;;;;;;16.00;9.67;;;;;;;19.90;58.34;98128.94;8417694;28;20204;-64
2021/07/02 09:07:29;;;;;;;18.10;10.03;;;;;;;19.92;57.69;98125.22;8417684;28;20219;-65
2021/07/02 09:11:34;;;;;;;18.27;9.93;;;;;;;19.94;57.65;98130.38;8416962;28;20209;-64
2021/07/02 09:15:43;;;;;;;18.73;10.67;;;;;;;19.90;57.22;98135.03;8417892;28;20252;-64
2021/07/02 09:19:47;;;;;;;20.20;9.63;;;;;;;19.94;57.08;98133.00;8411780;28;20219;-65
2021/07/02 09:23:49;;;;;;;17.20;10.27;;;;;;;20.10;57.15;98136.06;8398449;28;20191;-65
2021/07/02 09:27:55;;;;;;;16.13;10.20;;;;;;;20.19;56.97;98138.91;8400138;28;20236;-65
2021/07/02 09:32:01;;;;;;;17.43;9.53;;;;;;;20.37;56.07;98140.06;8399586;28;20195;-65
2021/07/02 09:36:04;;;;;;;15.90;9.00;;;;;;;20.45;55.38;98137.63;8399546;28;20238;-65
2021/07/02 09:40:13;;;;;;;15.03;9.37;;;;;;;20.90;54.74;98128.66;8406068;28;20271;-65
2021/07/02 09:44:16;;;;;;;15.30;10.07;;;;;;;21.12;53.84;98132.97;8417101;28;20207;-64
2021/07/02 09:48:21;;;;;;;16.43;10.43;;;;;;;21.13;54.56;98136.44;8417540;28;20216;-65
2021/07/02 09:52:27;;;;;;;19.33;10.30;;;;;;;21.20;54.16;98141.03;8417936;28;20199;-64
2021/07/02 09:56:30;;;;;;;14.70;9.20;;;;;;;21.48;53.19;98138.72;8417607;28;20432;-64
2021/07/02 10:00:33;;;;;;;22.60;11.13;;;;;;;21.41;52.84;98132.25;8417321;28;20206;-64
2021/07/02 10:05:00;;;;;;;21.80;9.07;;;;;;;21.62;53.37;98140.13;8417384;28;20202;-65
2021/07/02 10:09:04;;;;;;;17.87;9.60;;;;;;;21.26;53.74;98131.78;8416355;28;20206;-65
2021/07/02 10:13:07;;;;;;;19.90;10.20;;;;;;;21.12;54.50;98137.41;8417035;28;20199;-65
2021/07/02 10:17:11;;;;;;;13.83;8.90;;;;;;;20.99;54.39;98140.22;8417056;28;20233;-64
2021/07/02 10:21:18;;;;;;;23.43;9.40;;;;;;;20.83;55.59;98144.16;8416873;28;20212;-64
2021/07/02 10:25:21;;;;;;;17.17;9.10;;;;;;;20.79;54.95;98139.25;8417168;28;20540;-65
2021/07/02 10:29:23;;;;;;;14.47;9.00;;;;;;;20.91;54.55;98130.34;8416364;28;20240;-64
2021/07/02 10:33:29;;;;;;;13.43;9.63;;;;;;;20.88;53.09;98136.69;8416502;28;20381;-65
2021/07/02 10:37:33;;;;;;;15.80;9.53;;;;;;;21.36;52.82;98132.69;8416430;28;20264;-64
2021/07/02 10:41:36;;;;;;;14.77;9.07;;;;;;;21.51;52.80;98134.97;8397069;28;20203;-64
2021/07/02 10:45:40;;;;;;;12.10;7.93;;;;;;;21.85;52.45;98138.13;8382956;28;20272;-64
2021/07/02 10:49:43;;;;;;;12.07;8.20;;;;;;;21.98;51.38;98137.88;8382702;28;20223;-64
2021/07/02 10:53:47;;;;;;;12.47;8.57;;;;;;;21.97;51.19;98128.28;8382589;28;20211;-65
2021/07/02 10:57:52;;;;;;;14.47;8.50;;;;;;;22.04;51.47;98140.78;8382385;28;20241;-65
2021/07/02 11:02:18;;;;;;;16.70;7.77;;;;;;;21.88;51.48;98134.41;8395240;28;20549;-64
2021/07/02 11:06:39;;;;;;;13.37;8.00;;;;;;;21.78;52.06;98134.34;8415323;28;20228;-65
2021/07/02 11:10:58;;;;;;;11.20;7.83;;;;;;;21.66;51.52;98134.47;8415192;28;20203;-65
2021/07/02 11:15:11;;;;;;;11.57;8.70;;;;;;;21.75;52.02;98137.28;8415147;28;20199;-64
2021/07/02 11:19:24;;;;;;;12.17;7.67;;;;;;;21.47;52.81;98135.22;8401501;28;20198;-64
2021/07/02 11:23:27;;;;;;;18.07;8.50;;;;;;;21.33;53.70;98137.38;8381944;28;20203;-65
2021/07/02 11:27:39;;;;;;;16.57;7.67;;;;;;;21.33;53.45;98142.63;8381377;28;20254;-64
2021/07/02 11:31:43;;;;;;;17.03;7.87;;;;;;;21.26;53.15;98151.03;8381667;28;20298;-64
2021/07/02 11:35:47;;;;;;;9.40;7.37;;;;;;;21.13;54.06;98153.03;8381490;28;20228;-64
2021/07/02 11:39:53;;;;;;;14.33;7.30;;;;;;;21.20;53.83;98154.19;8381852;28;20201;-65
2021/07/02 11:43:58;;;;;;;12.20;8.17;;;;;;;21.15;53.84;98150.28;8389235;28;20489;-66
2021/07/02 11:48:01;;;;;;;16.83;8.00;;;;;;;21.23;53.45;98146.06;8400464;28;20218;-65
2021/07/02 11:52:04;;;;;;;14.50;7.57;;;;;;;21.27;53.36;98149.25;8414682;28;20197;-64
2021/07/02 11:56:09;;;;;;;14.53;7.83;;;;;;;21.19;53.75;98149.06;8414724;28;20409;-64
2021/07/02 12:00:14;;;;;;;22.27;7.63;;;;;;;21.19;53.60;98149.91;8414716;28;20495;-64
2021/07/02 12:04:18;;;;;;;16.80;8.80;;;;;;;21.21;53.00;98147.13;8414169;28;20203;-66
2021/07/02 12:08:22;;;;;;;17.40;8.13;;;;;;;21.33;53.58;98142.63;8414224;28;20229;-65
2021/07/02 12:12:25;;;;;;;20.80;8.83;;;;;;;21.27;52.80;98147.44;8410942;28;20209;-64
2021/07/02 12:16:33;;;;;;;19.83;7.47;;;;;;;21.40;53.31;98133.22;8414321;28;20227;-64
2021/07/02 12:20:35;;;;;;;13.23;8.20;;;;;;;21.33;52.87;98140.81;8414455;28;20192;-65
2021/07/02 12:24:39;;;;;;;11.67;7.13;;;;;;;21.45;52.76;98134.53;8414200;28;20199;-64
2021/07/02 12:29:09;;;;;;;14.00;7.93;;;;;;;21.62;52.64;98132.22;8414066;28;20235;-64
2021/07/02 12:33:17;;;;;;;12.47;7.37;;;;;;;21.88;52.12;98134.41;8417956;28;20211;-64
2021/07/02 12:37:21;;;;;;;15.63;7.73;;;;;;;22.00;51.27;98134.13;8419829;28;20239;-64
2021/07/02 12:41:24;;;;;;;16.13;7.63;;;;;;;22.16;51.53;98130.13;8419327;28;20228;-64
2021/07/02 12:45:27;;;;;;;10.17;7.63;;;;;;;22.27;51.02;98122.13;8419505;28;20205;-64
2021/07/02 12:49:34;;;;;;;11.60;6.90;;;;;;;22.54;49.70;98124.06;8419294;28;20210;-64
2021/07/02 12:57:59;;;;;;;16.43;8.17;;;;;;;22.71;49.53;98117.22;8413022;28;20426;-64
2021/07/02 13:02:01;;;;;;;11.17;7.57;;;;;;;22.70;47.97;98114.75;8416114;28;20384;-65
2021/07/02 13:06:15;;;;;;;13.47;7.03;;;;;;;23.03;48.85;98116.09;8418813;28;20490;-65
2021/07/02 13:10:19;;;;;;;18.30;7.93;;;;;;;23.12;48.83;98099.38;8418923;28;20213;-65
2021/07/02 13:14:28;;;;;;;10.13;6.67;;;;;;;22.94;48.78;98109.84;8418438;28;20198;-65
2021/07/02 13:18:33;;;;;;;9.63;6.40;;;;;;;22.96;48.59;98115.81;8417843;28;20424;-64
2021/07/02 13:22:43;;;;;;;9.00;6.80;;;;;;;22.77;49.29;98119.31;8418161;28;20206;-65
2021/07/02 13:26:57;;;;;;;10.83;6.53;;;;;;;22.88;49.37;98112.22;8417693;28;20206;-65
2021/07/02 13:31:30;;;;;;;10.60;6.23;;;;;;;23.10;48.55;98114.56;8417897;28;20199;-67
2021/07/02 13:35:33;;;;;;;11.40;6.47;;;;;;;22.99;48.34;98114.69;8417983;28;20257;-66
2021/07/02 13:39:39;;;;;;;14.77;6.37;;;;;;;23.10;49.21;98121.66;8417695;28;20229;-65
2021/07/02 13:43:42;;;;;;;10.10;6.37;;;;;;;22.72;48.22;98118.91;8401158;28;20214;-66
2021/07/02 13:47:45;;;;;;;9.23;6.40;;;;;;;22.77;49.43;98121.13;8400480;28;20199;-66
2021/07/02 13:51:48;;;;;;;8.60;6.47;;;;;;;22.22;48.85;98116.41;8400091;28;20191;-66
2021/07/02 13:55:53;;;;;;;7.37;5.80;;;;;;;22.18;48.59;98115.00;8400219;28;20202;-66
2021/07/02 13:59:57;;;;;;;6.97;5.97;;;;;;;22.03;49.61;98125.13;8383294;28;20220;-66
2021/07/02 14:04:00;;;;;;;6.87;5.90;;;;;;;21.88;49.85;98129.13;8383658;28;20490;-65
2021/07/02 14:08:04;;;;;;;11.03;6.53;;;;;;;22.31;49.26;98120.88;8382611;28;20224;-65
2021/07/02 14:12:09;;;;;;;9.50;5.93;;;;;;;22.65;47.56;98123.91;8382442;28;20200;-66
2021/07/02 14:16:12;;;;;;;6.60;5.03;;;;;;;23.49;42.97;98126.78;8398863;28;20191;-65
2021/07/02 14:20:15;;;;;;;6.23;4.93;;;;;;;23.70;41.84;98119.44;8398907;28;20197;-66
2021/07/02 14:24:18;;;;;;;7.03;5.00;;;;;;;23.88;41.72;98130.09;8398589;28;20217;-66
2021/07/02 14:28:22;;;;;;;5.13;4.37;;;;;;;23.55;42.43;98118.25;8398413;28;20225;-66
2021/07/02 14:32:25;;;;;;;7.37;5.07;;;;;;;23.61;43.03;98123.81;8398747;28;20213;-65
2021/07/02 14:36:27;;;;;;;5.33;4.83;;;;;;;23.66;41.80;98119.88;8398656;28;20194;-65
2021/07/02 14:40:30;;;;;;;6.00;4.60;;;;;;;23.61;42.44;98123.81;8382284;28;20191;-65
2021/07/02 14:44:34;;;;;;;7.17;4.70;;;;;;;23.49;41.43;98116.22;8381900;28;20198;-66
2021/07/02 14:48:37;;;;;;;9.77;5.00;;;;;;;23.80;43.33;98111.50;8390273;28;20200;-66
2021/07/02 14:52:40;;;;;;;5.93;4.50;;;;;;;23.78;42.26;98114.28;8397290;28;20197;-66
2021/07/02 14:56:49;;;;;;;8.70;4.70;;;;;;;23.60;43.09;98123.94;8402204;28;20223;-67
2021/07/02 15:00:53;;;;;;;6.73;4.33;;;;;;;23.90;42.62;98108.78;8395530;28;20439;-64
2021/07/02 15:04:56;;;;;;;12.90;5.57;;;;;;;23.48;43.47;98115.38;8397960;28;20205;-65
2021/07/02 15:08:59;;;;;;;5.50;4.70;;;;;;;23.54;42.04;98112.16;8397711;28;20423;-64
2021/07/02 15:13:02;;;;;;;6.47;4.30;;;;;;;23.39;44.02;98105.69;8397813;28;20198;-64
2021/07/02 15:17:07;;;;;;;7.40;4.93;;;;;;;23.07;45.19;98101.63;8397970;28;20219;-64
2021/07/02 15:21:13;;;;;;;6.13;4.30;;;;;;;22.86;44.23;98108.88;8397731;28;20385;-64
2021/07/02 15:25:16;;;;;;;6.47;4.80;;;;;;;22.98;44.34;98099.81;8397643;28;20199;-65
2021/07/02 15:29:19;;;;;;;6.40;5.10;;;;;;;22.81;45.73;98101.41;8397513;28;20216;-64
2021/07/02 15:33:23;;;;;;;5.63;4.57;;;;;;;23.22;44.05;98105.47;8397495;28;20192;-64
2021/07/02 15:37:26;;;;;;;6.17;4.97;;;;;;;23.23;45.00;98093.94;8397400;28;20219;-65
2021/07/02 15:41:28;;;;;;;4.90;4.40;;;;;;;22.89;45.77;98104.16;8397525;28;20199;-66
2021/07/02 15:45:31;;;;;;;5.43;4.30;;;;;;;22.77;43.93;98098.22;8394326;28;20195;-66
2021/07/02 15:49:36;;;;;;;9.10;4.20;;;;;;;23.17;43.01;98096.31;8398973;28;20404;-66
2021/07/02 15:53:39;;;;;;;6.67;4.13;;;;;;;23.16;42.84;98087.56;8400516;28;20202;-67
2021/07/02 15:57:42;;;;;;;4.30;3.90;;;;;;;23.04;43.65;98099.28;8396676;28;20227;-67
2021/07/02 16:01:45;;;;;;;4.87;4.13;;;;;;;23.06;43.20;98101.78;8396305;28;20197;-67
2021/07/02 16:05:49;;;;;;;6.03;4.00;;;;;;;23.30;43.01;98099.44;8399250;28;20218;-66
2021/07/02 16:09:52;;;;;;;5.50;4.43;;;;;;;23.25;43.10;98096.44;8403847;28;20202;-66
2021/07/02 16:13:55;;;;;;;5.13;3.93;;;;;;;23.01;41.69;98088.97;8405473;28;20191;-67
2021/07/02 16:18:00;;;;;;;4.60;4.10;;;;;;;22.70;41.94;98088.34;8403452;28;20223;-66
2021/07/02 16:22:05;;;;;;;4.67;4.10;;;;;;;22.87;40.54;98090.25;8400722;28;20196;-67
2021/07/02 16:26:08;;;;;;;5.73;4.00;;;;;;;22.96;39.58;98085.91;8386400;28;20196;-67
2021/07/02 16:30:13;;;;;;;5.50;4.20;;;;;;;23.07;40.39;98083.13;8386586;28;20599;-66
2021/07/02 16:34:16;;;;;;;4.57;3.93;;;;;;;23.06;40.05;98086.75;8408514;28;20207;-66
2021/07/02 16:38:21;;;;;;;5.70;3.50;;;;;;;22.87;37.02;98081.53;8419792;28;20407;-66
2021/07/02 16:42:24;;;;;;;4.73;4.00;;;;;;;22.74;37.07;98084.47;8419483;28;20237;-66
2021/07/02 16:46:27;;;;;;;4.20;3.70;;;;;;;22.69;36.46;98090.13;8419273;28;20194;-66
2021/07/02 16:50:30;;;;;;;6.10;3.80;;;;;;;22.60;36.74;98081.28;8419376;28;20246;-67
2021/07/02 16:54:34;;;;;;;5.17;4.20;;;;;;;22.75;37.25;98078.19;8418548;28;20294;-67
2021/07/02 16:58:37;;;;;;;4.63;3.90;;;;;;;22.60;37.72;98080.47;8401801;28;20230;-66
2021/07/02 17:02:39;;;;;;;4.45;3.97;;;;;;;22.63;38.18;98080.97;8411768;28;20420;-67
2021/07/02 17:06:43;;;;;;;6.93;4.03;;;;;;;22.56;39.18;98077.28;8394929;28;20221;-66
2021/07/02 17:10:48;;;;;;;5.07;4.13;;;;;;;22.50;39.05;98076.97;8418570;28;20210;-66
2021/07/02 17:14:50;;;;;;;4.27;3.87;;;;;;;22.44;39.47;98078.38;8419145;28;20214;-65
2021/07/02 17:18:53;;;;;;;10.73;4.83;;;;;;;22.41;41.25;98084.78;8418114;28;20227;-65
2021/07/02 17:22:56;;;;;;;9.23;4.37;;;;;;;22.28;40.94;98081.59;8418322;28;20214;-65
2021/07/02 17:27:00;;;;;;;5.30;4.60;;;;;;;22.22;41.43;98082.13;8417425;28;20227;-64
2021/07/02 17:31:05;;;;;;;7.77;4.70;;;;;;;22.22;42.17;98082.94;8417876;28;20204;-64
2021/07/02 17:35:10;;;;;;;54.27;6.97;;;;;;;22.17;41.51;98085.16;8417616;28;20199;-64
2021/07/02 17:39:13;;;;;;;7.63;4.33;;;;;;;22.14;41.97;98082.81;8417713;28;20237;-65
2021/07/02 17:43:18;;;;;;;6.90;4.27;;;;;;;22.16;42.24;98094.06;8408545;28;20193;-65
2021/07/02 17:47:21;;;;;;;6.20;5.00;;;;;;;22.08;42.51;98093.88;8403495;28;20203;-64
2021/07/02 17:51:24;;;;;;;4.83;4.33;;;;;;;22.01;42.54;98093.63;8415372;28;20203;-65
2021/07/02 17:55:26;;;;;;;6.67;4.73;;;;;;;21.94;42.87;98095.13;8416217;28;20385;-65
2021/07/02 17:59:31;;;;;;;10.30;4.50;;;;;;;22.00;43.12;98099.03;8412252;28;20225;-65
2021/07/02 18:03:35;;;;;;;6.73;4.63;;;;;;;21.96;43.51;98106.38;8388735;28;20240;-65
2021/07/02 18:07:38;;;;;;;10.00;4.80;;;;;;;21.89;43.66;98107.88;8394599;28;20218;-65
2021/07/02 18:11:41;;;;;;;8.07;4.63;;;;;;;21.82;44.31;98109.41;8415521;28;20286;-66
2021/07/02 18:15:45;;;;;;;7.87;5.13;;;;;;;21.79;44.86;98117.59;8415457;28;20206;-65
2021/07/02 18:19:48;;;;;;;9.37;5.43;;;;;;;21.69;45.21;98122.84;8415084;28;20250;-65
2021/07/02 18:23:51;;;;;;;7.93;5.20;;;;;;;21.67;45.15;98115.06;8382351;28;20211;-65
2021/07/02 18:27:54;;;;;;;10.50;5.20;;;;;;;21.76;45.25;98108.16;8381659;28;20227;-65
2021/07/02 18:31:58;;;;;;;7.43;5.90;;;;;;;22.02;45.25;98111.09;8383744;28;20252;-66
2021/07/02 18:36:01;;;;;;;16.00;6.00;;;;;;;22.02;45.35;98105.81;8400231;28;20217;-65
2021/07/02 18:40:06;;;;;;;9.33;5.73;;;;;;;21.91;45.34;98105.94;8388895;28;20227;-66
2021/07/02 18:44:08;;;;;;;5.90;5.33;;;;;;;21.85;45.58;98101.22;8382159;28;20200;-65
2021/07/02 18:48:13;;;;;;;8.37;6.17;;;;;;;21.80;46.93;98100.78;8400385;28;20226;-65
2021/07/02 18:52:15;;;;;;;6.87;5.87;;;;;;;21.67;46.27;98096.59;8415105;28;20390;-65
2021/07/02 18:56:18;;;;;;;6.60;5.90;;;;;;;21.63;46.95;98097.84;8414809;28;20266;-65
2021/07/02 19:00:21;;;;;;;8.17;6.23;;;;;;;21.56;47.62;98094.06;8414545;28;20227;-65
2021/07/02 19:04:26;;;;;;;6.57;5.87;;;;;;;21.53;48.75;98096.97;8381564;28;20209;-65